sensor_id;sensor_type;location;lat;lon;timestamp;P1;durP1;ratioP1;P2;durP2;ratioP2
75050;SDS011;63628;47.656;11.310;2024-03-08T00:02:08;13.37;;;9.50;;
75050;SDS011;63628;47.656;11.310;2024-03-08T00:04:35;13.47;;;8.93;;
75050;SDS011;63628;47.656;11.310;2024-03-08T00:07:01;11.77;;;8.83;;
75050;SDS011;63628;47.656;11.310;2024-03-08T00:09:28;12.03;;;8.40;;
75050;SDS011;63628;47.656;11.310;2024-03-08T00:11:58;13.93;;;8.77;;
75050;SDS011;63628;47.656;11.310;2024-03-08T00:14:25;13.20;;;8.83;;
75050;SDS011;63628;47.656;11.310;2024-03-08T00:16:52;12.90;;;8.10;;
75050;SDS011;63628;47.656;11.310;2024-03-08T00:19:20;11.83;;;8.20;;
75050;SDS011;63628;47.656;11.310;2024-03-08T00:21:47;14.40;;;8.67;;
75050;SDS011;63628;47.656;11.310;2024-03-08T00:24:13;11.57;;;7.80;;
75050;SDS011;63628;47.656;11.310;2024-03-08T00:26:40;12.93;;;8.50;;
75050;SDS011;63628;47.656;11.310;2024-03-08T00:29:09;11.87;;;7.73;;
75050;SDS011;63628;47.656;11.310;2024-03-08T00:31:36;11.63;;;8.50;;
75050;SDS011;63628;47.656;11.310;2024-03-08T00:34:03;13.17;;;8.07;;
75050;SDS011;63628;47.656;11.310;2024-03-08T00:36:30;11.70;;;8.17;;
75050;SDS011;63628;47.656;11.310;2024-03-08T00:38:56;12.17;;;8.63;;
75050;SDS011;63628;47.656;11.310;2024-03-08T00:41:23;13.50;;;8.53;;
75050;SDS011;63628;47.656;11.310;2024-03-08T00:43:53;13.57;;;8.65;;
75050;SDS011;63628;47.656;11.310;2024-03-08T00:46:21;12.53;;;8.13;;
75050;SDS011;63628;47.656;11.310;2024-03-08T00:48:48;11.27;;;7.70;;
75050;SDS011;63628;47.656;11.310;2024-03-08T00:51:15;11.47;;;7.87;;
75050;SDS011;63628;47.656;11.310;2024-03-08T00:53:42;11.80;;;8.00;;
75050;SDS011;63628;47.656;11.310;2024-03-08T00:56:09;12.30;;;7.50;;
75050;SDS011;63628;47.656;11.310;2024-03-08T00:58:39;13.18;;;8.40;;
75050;SDS011;63628;47.656;11.310;2024-03-08T01:01:06;12.93;;;8.83;;
75050;SDS011;63628;47.656;11.310;2024-03-08T01:03:34;13.40;;;9.00;;
75050;SDS011;63628;47.656;11.310;2024-03-08T01:06:01;12.43;;;7.73;;
75050;SDS011;63628;47.656;11.310;2024-03-08T01:08:28;12.33;;;8.00;;
75050;SDS011;63628;47.656;11.310;2024-03-08T01:10:55;13.07;;;8.17;;
75050;SDS011;63628;47.656;11.310;2024-03-08T01:13:22;11.97;;;7.60;;
75050;SDS011;63628;47.656;11.310;2024-03-08T01:15:48;13.70;;;8.50;;
75050;SDS011;63628;47.656;11.310;2024-03-08T01:18:15;13.40;;;8.90;;
75050;SDS011;63628;47.656;11.310;2024-03-08T01:20:43;12.73;;;8.53;;
75050;SDS011;63628;47.656;11.310;2024-03-08T01:23:10;12.87;;;8.40;;
75050;SDS011;63628;47.656;11.310;2024-03-08T01:25:37;13.43;;;8.53;;
75050;SDS011;63628;47.656;11.310;2024-03-08T01:28:04;12.27;;;7.90;;
75050;SDS011;63628;47.656;11.310;2024-03-08T01:30:31;14.07;;;9.43;;
75050;SDS011;63628;47.656;11.310;2024-03-08T01:32:59;13.67;;;8.17;;
75050;SDS011;63628;47.656;11.310;2024-03-08T01:35:25;12.37;;;8.53;;
75050;SDS011;63628;47.656;11.310;2024-03-08T01:37:55;17.43;;;11.30;;
75050;SDS011;63628;47.656;11.310;2024-03-08T01:40:21;18.20;;;11.80;;
75050;SDS011;63628;47.656;11.310;2024-03-08T01:42:48;14.73;;;8.77;;
75050;SDS011;63628;47.656;11.310;2024-03-08T01:45:15;13.27;;;8.47;;
75050;SDS011;63628;47.656;11.310;2024-03-08T01:47:43;13.07;;;8.73;;
75050;SDS011;63628;47.656;11.310;2024-03-08T01:50:10;13.63;;;8.43;;
75050;SDS011;63628;47.656;11.310;2024-03-08T01:52:37;13.53;;;8.40;;
75050;SDS011;63628;47.656;11.310;2024-03-08T01:55:05;13.23;;;8.93;;
75050;SDS011;63628;47.656;11.310;2024-03-08T01:57:35;14.57;;;8.73;;
75050;SDS011;63628;47.656;11.310;2024-03-08T02:00:04;14.95;;;10.18;;
75050;SDS011;63628;47.656;11.310;2024-03-08T02:02:32;14.10;;;9.60;;
75050;SDS011;63628;47.656;11.310;2024-03-08T02:05:01;15.57;;;9.73;;
75050;SDS011;63628;47.656;11.310;2024-03-08T02:07:28;14.87;;;9.57;;
75050;SDS011;63628;47.656;11.310;2024-03-08T02:09:54;23.87;;;15.47;;
75050;SDS011;63628;47.656;11.310;2024-03-08T02:12:22;15.10;;;9.93;;
75050;SDS011;63628;47.656;11.310;2024-03-08T02:14:50;13.80;;;9.30;;
75050;SDS011;63628;47.656;11.310;2024-03-08T02:17:16;12.03;;;8.83;;
75050;SDS011;63628;47.656;11.310;2024-03-08T02:19:44;22.43;;;13.67;;
75050;SDS011;63628;47.656;11.310;2024-03-08T02:22:12;13.67;;;9.17;;
75050;SDS011;63628;47.656;11.310;2024-03-08T02:24:38;14.10;;;8.87;;
75050;SDS011;63628;47.656;11.310;2024-03-08T02:27:05;13.70;;;10.27;;
75050;SDS011;63628;47.656;11.310;2024-03-08T02:29:33;14.33;;;9.47;;
75050;SDS011;63628;47.656;11.310;2024-03-08T02:32:00;15.33;;;9.67;;
75050;SDS011;63628;47.656;11.310;2024-03-08T02:34:27;13.40;;;9.27;;
75050;SDS011;63628;47.656;11.310;2024-03-08T02:36:53;17.63;;;11.07;;
75050;SDS011;63628;47.656;11.310;2024-03-08T02:39:24;15.07;;;9.23;;
75050;SDS011;63628;47.656;11.310;2024-03-08T02:41:50;14.40;;;9.60;;
75050;SDS011;63628;47.656;11.310;2024-03-08T02:44:17;14.97;;;9.87;;
75050;SDS011;63628;47.656;11.310;2024-03-08T02:46:44;13.53;;;9.73;;
75050;SDS011;63628;47.656;11.310;2024-03-08T02:49:11;17.60;;;11.27;;
75050;SDS011;63628;47.656;11.310;2024-03-08T02:51:37;15.30;;;9.83;;
75050;SDS011;63628;47.656;11.310;2024-03-08T02:54:05;16.63;;;10.47;;
75050;SDS011;63628;47.656;11.310;2024-03-08T02:56:33;15.07;;;10.00;;
75050;SDS011;63628;47.656;11.310;2024-03-08T03:01:28;14.07;;;9.47;;
75050;SDS011;63628;47.656;11.310;2024-03-08T03:03:54;16.07;;;9.93;;
75050;SDS011;63628;47.656;11.310;2024-03-08T03:06:21;16.60;;;9.73;;
75050;SDS011;63628;47.656;11.310;2024-03-08T03:08:48;17.67;;;10.77;;
75050;SDS011;63628;47.656;11.310;2024-03-08T03:11:15;14.13;;;9.13;;
75050;SDS011;63628;47.656;11.310;2024-03-08T03:13:43;15.33;;;10.00;;
75050;SDS011;63628;47.656;11.310;2024-03-08T03:16:16;16.60;;;10.23;;
75050;SDS011;63628;47.656;11.310;2024-03-08T03:18:44;15.87;;;10.23;;
75050;SDS011;63628;47.656;11.310;2024-03-08T03:21:11;13.50;;;9.57;;
75050;SDS011;63628;47.656;11.310;2024-03-08T03:23:39;15.73;;;9.77;;
75050;SDS011;63628;47.656;11.310;2024-03-08T03:26:06;15.57;;;10.10;;
75050;SDS011;63628;47.656;11.310;2024-03-08T03:28:39;15.60;;;10.40;;
75050;SDS011;63628;47.656;11.310;2024-03-08T03:31:07;14.80;;;9.83;;
75050;SDS011;63628;47.656;11.310;2024-03-08T03:33:36;14.93;;;10.53;;
75050;SDS011;63628;47.656;11.310;2024-03-08T03:36:03;14.63;;;9.73;;
75050;SDS011;63628;47.656;11.310;2024-03-08T03:38:31;15.43;;;10.37;;
75050;SDS011;63628;47.656;11.310;2024-03-08T03:40:59;15.47;;;9.43;;
75050;SDS011;63628;47.656;11.310;2024-03-08T03:43:32;15.33;;;9.90;;
75050;SDS011;63628;47.656;11.310;2024-03-08T03:45:59;15.07;;;10.10;;
75050;SDS011;63628;47.656;11.310;2024-03-08T03:48:28;16.10;;;10.00;;
75050;SDS011;63628;47.656;11.310;2024-03-08T03:50:54;28.40;;;16.87;;
75050;SDS011;63628;47.656;11.310;2024-03-08T03:53:22;18.57;;;10.97;;
75050;SDS011;63628;47.656;11.310;2024-03-08T03:55:48;15.37;;;10.73;;
75050;SDS011;63628;47.656;11.310;2024-03-08T03:58:15;29.70;;;18.10;;
75050;SDS011;63628;47.656;11.310;2024-03-08T04:00:42;33.23;;;19.37;;
75050;SDS011;63628;47.656;11.310;2024-03-08T04:03:09;17.27;;;10.33;;
75050;SDS011;63628;47.656;11.310;2024-03-08T04:05:37;34.57;;;18.00;;
75050;SDS011;63628;47.656;11.310;2024-03-08T04:08:04;18.37;;;11.80;;
75050;SDS011;63628;47.656;11.310;2024-03-08T04:10:30;18.53;;;11.57;;
75050;SDS011;63628;47.656;11.310;2024-03-08T04:12:57;26.67;;;15.90;;
75050;SDS011;63628;47.656;11.310;2024-03-08T04:15:24;47.97;;;18.90;;
75050;SDS011;63628;47.656;11.310;2024-03-08T04:17:51;17.70;;;11.23;;
75050;SDS011;63628;47.656;11.310;2024-03-08T04:20:18;34.17;;;18.37;;
75050;SDS011;63628;47.656;11.310;2024-03-08T04:22:46;37.20;;;18.03;;
75050;SDS011;63628;47.656;11.310;2024-03-08T04:25:15;20.23;;;11.50;;
75050;SDS011;63628;47.656;11.310;2024-03-08T04:27:42;17.23;;;11.33;;
75050;SDS011;63628;47.656;11.310;2024-03-08T04:30:09;41.30;;;16.97;;
75050;SDS011;63628;47.656;11.310;2024-03-08T04:32:37;28.60;;;15.83;;
75050;SDS011;63628;47.656;11.310;2024-03-08T04:35:04;56.27;;;18.67;;
75050;SDS011;63628;47.656;11.310;2024-03-08T04:37:31;65.00;;;19.47;;
75050;SDS011;63628;47.656;11.310;2024-03-08T04:39:59;65.27;;;19.00;;
75050;SDS011;63628;47.656;11.310;2024-03-08T04:42:26;50.90;;;17.47;;
75050;SDS011;63628;47.656;11.310;2024-03-08T04:44:55;60.63;;;18.27;;
75050;SDS011;63628;47.656;11.310;2024-03-08T04:47:22;47.10;;;20.37;;
75050;SDS011;63628;47.656;11.310;2024-03-08T04:49:48;44.67;;;18.87;;
75050;SDS011;63628;47.656;11.310;2024-03-08T04:52:16;30.83;;;15.27;;
75050;SDS011;63628;47.656;11.310;2024-03-08T04:54:43;65.37;;;18.43;;
75050;SDS011;63628;47.656;11.310;2024-03-08T04:57:14;29.05;;;14.52;;
75050;SDS011;63628;47.656;11.310;2024-03-08T04:59:41;26.33;;;16.00;;
75050;SDS011;63628;47.656;11.310;2024-03-08T05:02:08;63.70;;;17.67;;
75050;SDS011;63628;47.656;11.310;2024-03-08T05:04:34;45.63;;;17.73;;
75050;SDS011;63628;47.656;11.310;2024-03-08T05:07:01;75.67;;;18.07;;
75050;SDS011;63628;47.656;11.310;2024-03-08T05:09:28;57.73;;;16.90;;
75050;SDS011;63628;47.656;11.310;2024-03-08T05:11:58;21.17;;;13.05;;
75050;SDS011;63628;47.656;11.310;2024-03-08T05:14:27;22.17;;;12.73;;
75050;SDS011;63628;47.656;11.310;2024-03-08T05:16:54;17.97;;;10.53;;
75050;SDS011;63628;47.656;11.310;2024-03-08T05:19:21;18.03;;;11.37;;
75050;SDS011;63628;47.656;11.310;2024-03-08T05:21:48;24.63;;;14.50;;
75050;SDS011;63628;47.656;11.310;2024-03-08T05:24:16;22.40;;;14.03;;
75050;SDS011;63628;47.656;11.310;2024-03-08T05:26:44;35.17;;;15.53;;
75050;SDS011;63628;47.656;11.310;2024-03-08T05:29:12;35.67;;;14.40;;
75050;SDS011;63628;47.656;11.310;2024-03-08T05:31:45;19.13;;;11.40;;
75050;SDS011;63628;47.656;11.310;2024-03-08T05:34:13;30.50;;;14.30;;
75050;SDS011;63628;47.656;11.310;2024-03-08T05:36:40;18.80;;;11.20;;
75050;SDS011;63628;47.656;11.310;2024-03-08T05:39:09;21.52;;;12.57;;
75050;SDS011;63628;47.656;11.310;2024-03-08T05:41:38;17.23;;;10.57;;
75050;SDS011;63628;47.656;11.310;2024-03-08T05:44:05;17.97;;;11.43;;
75050;SDS011;63628;47.656;11.310;2024-03-08T05:46:32;35.47;;;13.70;;
75050;SDS011;63628;47.656;11.310;2024-03-08T05:49:01;37.37;;;14.73;;
75050;SDS011;63628;47.656;11.310;2024-03-08T05:51:31;28.27;;;14.93;;
75050;SDS011;63628;47.656;11.310;2024-03-08T05:54:00;55.47;;;14.50;;
75050;SDS011;63628;47.656;11.310;2024-03-08T05:56:29;19.10;;;11.97;;
75050;SDS011;63628;47.656;11.310;2024-03-08T05:58:56;18.27;;;9.80;;
75050;SDS011;63628;47.656;11.310;2024-03-08T06:01:24;14.33;;;9.10;;
75050;SDS011;63628;47.656;11.310;2024-03-08T06:03:51;33.40;;;13.20;;
75050;SDS011;63628;47.656;11.310;2024-03-08T06:06:19;20.03;;;9.90;;
75050;SDS011;63628;47.656;11.310;2024-03-08T06:08:47;15.70;;;9.27;;
75050;SDS011;63628;47.656;11.310;2024-03-08T06:11:15;15.17;;;9.53;;
75050;SDS011;63628;47.656;11.310;2024-03-08T06:13:44;13.90;;;8.80;;
75050;SDS011;63628;47.656;11.310;2024-03-08T06:16:11;15.63;;;8.90;;
75050;SDS011;63628;47.656;11.310;2024-03-08T06:18:38;14.10;;;9.40;;
75050;SDS011;63628;47.656;11.310;2024-03-08T06:21:06;14.13;;;9.40;;
75050;SDS011;63628;47.656;11.310;2024-03-08T06:23:34;12.80;;;8.53;;
75050;SDS011;63628;47.656;11.310;2024-03-08T06:26:07;19.43;;;11.90;;
75050;SDS011;63628;47.656;11.310;2024-03-08T06:28:34;32.83;;;12.30;;
75050;SDS011;63628;47.656;11.310;2024-03-08T06:31:01;14.97;;;9.30;;
75050;SDS011;63628;47.656;11.310;2024-03-08T06:33:29;15.90;;;9.50;;
75050;SDS011;63628;47.656;11.310;2024-03-08T06:35:58;15.83;;;9.97;;
75050;SDS011;63628;47.656;11.310;2024-03-08T06:38:25;15.67;;;8.83;;
75050;SDS011;63628;47.656;11.310;2024-03-08T06:40:54;21.27;;;12.53;;
75050;SDS011;63628;47.656;11.310;2024-03-08T06:43:21;19.97;;;11.87;;
75050;SDS011;63628;47.656;11.310;2024-03-08T06:45:48;13.50;;;8.47;;
75050;SDS011;63628;47.656;11.310;2024-03-08T06:48:15;23.73;;;12.07;;
75050;SDS011;63628;47.656;11.310;2024-03-08T06:50:43;26.37;;;12.77;;
75050;SDS011;63628;47.656;11.310;2024-03-08T06:53:11;32.70;;;13.30;;
75050;SDS011;63628;47.656;11.310;2024-03-08T06:55:38;17.90;;;10.13;;
75050;SDS011;63628;47.656;11.310;2024-03-08T06:58:06;14.83;;;8.83;;
75050;SDS011;63628;47.656;11.310;2024-03-08T07:00:33;14.33;;;9.00;;
75050;SDS011;63628;47.656;11.310;2024-03-08T07:03:00;26.40;;;12.73;;
75050;SDS011;63628;47.656;11.310;2024-03-08T07:05:27;14.77;;;8.87;;
75050;SDS011;63628;47.656;11.310;2024-03-08T07:07:56;38.60;;;12.15;;
75050;SDS011;63628;47.656;11.310;2024-03-08T07:10:23;35.30;;;12.93;;
75050;SDS011;63628;47.656;11.310;2024-03-08T07:12:50;37.00;;;13.97;;
75050;SDS011;63628;47.656;11.310;2024-03-08T07:15:19;44.53;;;14.13;;
75050;SDS011;63628;47.656;11.310;2024-03-08T07:17:46;14.87;;;9.30;;
75050;SDS011;63628;47.656;11.310;2024-03-08T07:20:13;16.40;;;10.13;;
75050;SDS011;63628;47.656;11.310;2024-03-08T07:22:42;13.27;;;8.40;;
75050;SDS011;63628;47.656;11.310;2024-03-08T07:25:13;22.10;;;12.43;;
75050;SDS011;63628;47.656;11.310;2024-03-08T07:27:50;30.03;;;13.17;;
75050;SDS011;63628;47.656;11.310;2024-03-08T07:30:20;21.40;;;12.30;;
75050;SDS011;63628;47.656;11.310;2024-03-08T07:33:06;22.00;;;12.27;;
75050;SDS011;63628;47.656;11.310;2024-03-08T07:35:34;16.93;;;10.23;;
75050;SDS011;63628;47.656;11.310;2024-03-08T07:38:04;16.53;;;9.20;;
75050;SDS011;63628;47.656;11.310;2024-03-08T07:40:31;19.20;;;9.57;;
75050;SDS011;63628;47.656;11.310;2024-03-08T07:45:29;25.33;;;11.93;;
75050;SDS011;63628;47.656;11.310;2024-03-08T07:47:57;17.17;;;10.67;;
75050;SDS011;63628;47.656;11.310;2024-03-08T07:50:23;23.77;;;12.30;;
75050;SDS011;63628;47.656;11.310;2024-03-08T07:52:50;18.57;;;10.77;;
75050;SDS011;63628;47.656;11.310;2024-03-08T07:55:17;19.80;;;11.83;;
75050;SDS011;63628;47.656;11.310;2024-03-08T07:57:44;23.07;;;12.27;;
75050;SDS011;63628;47.656;11.310;2024-03-08T08:00:11;16.93;;;9.17;;
75050;SDS011;63628;47.656;11.310;2024-03-08T08:02:45;18.10;;;9.80;;
75050;SDS011;63628;47.656;11.310;2024-03-08T08:05:12;16.97;;;10.03;;
75050;SDS011;63628;47.656;11.310;2024-03-08T08:07:39;17.23;;;10.27;;
75050;SDS011;63628;47.656;11.310;2024-03-08T08:10:10;15.97;;;9.70;;
75050;SDS011;63628;47.656;11.310;2024-03-08T08:12:44;16.10;;;9.77;;
75050;SDS011;63628;47.656;11.310;2024-03-08T08:15:12;17.03;;;9.70;;
75050;SDS011;63628;47.656;11.310;2024-03-08T08:17:39;17.60;;;9.10;;
75050;SDS011;63628;47.656;11.310;2024-03-08T08:20:08;17.90;;;9.50;;
75050;SDS011;63628;47.656;11.310;2024-03-08T08:22:35;17.85;;;10.52;;
75050;SDS011;63628;47.656;11.310;2024-03-08T08:25:02;16.73;;;9.60;;
75050;SDS011;63628;47.656;11.310;2024-03-08T08:27:29;15.77;;;9.53;;
75050;SDS011;63628;47.656;11.310;2024-03-08T08:29:55;15.30;;;8.90;;
75050;SDS011;63628;47.656;11.310;2024-03-08T08:32:22;16.87;;;9.20;;
75050;SDS011;63628;47.656;11.310;2024-03-08T08:34:49;16.47;;;9.20;;
75050;SDS011;63628;47.656;11.310;2024-03-08T08:37:17;13.87;;;9.17;;
75050;SDS011;63628;47.656;11.310;2024-03-08T08:39:46;15.07;;;8.17;;
75050;SDS011;63628;47.656;11.310;2024-03-08T08:42:12;18.40;;;10.10;;
75050;SDS011;63628;47.656;11.310;2024-03-08T08:44:39;14.27;;;9.43;;
75050;SDS011;63628;47.656;11.310;2024-03-08T08:47:06;14.87;;;8.93;;
75050;SDS011;63628;47.656;11.310;2024-03-08T08:49:41;15.37;;;9.57;;
75050;SDS011;63628;47.656;11.310;2024-03-08T08:52:09;13.77;;;8.50;;
75050;SDS011;63628;47.656;11.310;2024-03-08T08:54:44;15.43;;;9.13;;
75050;SDS011;63628;47.656;11.310;2024-03-08T08:57:15;16.40;;;9.03;;
75050;SDS011;63628;47.656;11.310;2024-03-08T08:59:42;16.67;;;9.77;;
75050;SDS011;63628;47.656;11.310;2024-03-08T09:02:08;16.30;;;9.10;;
75050;SDS011;63628;47.656;11.310;2024-03-08T09:04:38;20.27;;;11.43;;
75050;SDS011;63628;47.656;11.310;2024-03-08T09:07:05;14.87;;;9.10;;
75050;SDS011;63628;47.656;11.310;2024-03-08T09:09:35;14.25;;;8.38;;
75050;SDS011;63628;47.656;11.310;2024-03-08T09:12:04;14.07;;;9.10;;
75050;SDS011;63628;47.656;11.310;2024-03-08T09:14:31;14.77;;;8.33;;
75050;SDS011;63628;47.656;11.310;2024-03-08T09:16:57;20.70;;;12.37;;
75050;SDS011;63628;47.656;11.310;2024-03-08T09:19:25;14.80;;;8.83;;
75050;SDS011;63628;47.656;11.310;2024-03-08T09:21:52;20.67;;;12.73;;
75050;SDS011;63628;47.656;11.310;2024-03-08T09:24:19;14.23;;;8.77;;
75050;SDS011;63628;47.656;11.310;2024-03-08T09:26:45;14.37;;;8.00;;
75050;SDS011;63628;47.656;11.310;2024-03-08T09:29:14;14.10;;;8.87;;
75050;SDS011;63628;47.656;11.310;2024-03-08T09:31:40;19.53;;;12.53;;
75050;SDS011;63628;47.656;11.310;2024-03-08T09:34:07;14.67;;;8.87;;
75050;SDS011;63628;47.656;11.310;2024-03-08T09:36:38;19.00;;;11.17;;
75050;SDS011;63628;47.656;11.310;2024-03-08T09:39:05;16.30;;;9.13;;
75050;SDS011;63628;47.656;11.310;2024-03-08T09:41:33;13.43;;;8.53;;
75050;SDS011;63628;47.656;11.310;2024-03-08T09:44:00;13.60;;;7.87;;
75050;SDS011;63628;47.656;11.310;2024-03-08T09:46:28;13.13;;;7.73;;
75050;SDS011;63628;47.656;11.310;2024-03-08T09:48:56;12.15;;;7.35;;
75050;SDS011;63628;47.656;11.310;2024-03-08T09:51:25;12.93;;;8.30;;
75050;SDS011;63628;47.656;11.310;2024-03-08T09:53:54;11.90;;;7.77;;
75050;SDS011;63628;47.656;11.310;2024-03-08T09:56:21;13.00;;;7.93;;
75050;SDS011;63628;47.656;11.310;2024-03-08T09:58:50;14.15;;;8.38;;
75050;SDS011;63628;47.656;11.310;2024-03-08T10:04:08;11.57;;;7.17;;
75050;SDS011;63628;47.656;11.310;2024-03-08T10:06:36;21.80;;;12.00;;
75050;SDS011;63628;47.656;11.310;2024-03-08T10:09:03;12.83;;;7.27;;
75050;SDS011;63628;47.656;11.310;2024-03-08T10:11:32;12.48;;;7.85;;
75050;SDS011;63628;47.656;11.310;2024-03-08T10:14:00;13.73;;;8.60;;
75050;SDS011;63628;47.656;11.310;2024-03-08T10:16:27;17.80;;;10.87;;
75050;SDS011;63628;47.656;11.310;2024-03-08T10:18:57;12.87;;;7.03;;
75050;SDS011;63628;47.656;11.310;2024-03-08T10:21:23;16.05;;;10.52;;
75050;SDS011;63628;47.656;11.310;2024-03-08T10:23:51;17.07;;;10.40;;
75050;SDS011;63628;47.656;11.310;2024-03-08T10:26:18;19.07;;;12.10;;
75050;SDS011;63628;47.656;11.310;2024-03-08T10:28:48;18.47;;;11.47;;
75050;SDS011;63628;47.656;11.310;2024-03-08T10:31:16;17.97;;;10.73;;
75050;SDS011;63628;47.656;11.310;2024-03-08T10:33:45;11.13;;;6.80;;
75050;SDS011;63628;47.656;11.310;2024-03-08T10:36:13;17.00;;;10.47;;
75050;SDS011;63628;47.656;11.310;2024-03-08T10:38:41;20.38;;;12.35;;
75050;SDS011;63628;47.656;11.310;2024-03-08T10:41:15;15.90;;;9.83;;
75050;SDS011;63628;47.656;11.310;2024-03-08T10:43:50;13.93;;;9.03;;
75050;SDS011;63628;47.656;11.310;2024-03-08T10:46:37;20.40;;;11.93;;
75050;SDS011;63628;47.656;11.310;2024-03-08T10:49:17;18.67;;;11.80;;
75050;SDS011;63628;47.656;11.310;2024-03-08T10:51:48;18.80;;;11.65;;
75050;SDS011;63628;47.656;11.310;2024-03-08T10:54:18;17.43;;;9.90;;
75050;SDS011;63628;47.656;11.310;2024-03-08T10:56:46;17.93;;;10.70;;
75050;SDS011;63628;47.656;11.310;2024-03-08T10:59:15;17.40;;;10.43;;
75050;SDS011;63628;47.656;11.310;2024-03-08T11:01:43;23.13;;;13.40;;
75050;SDS011;63628;47.656;11.310;2024-03-08T11:04:10;10.47;;;7.07;;
75050;SDS011;63628;47.656;11.310;2024-03-08T11:06:42;11.10;;;6.90;;
75050;SDS011;63628;47.656;11.310;2024-03-08T11:09:30;12.23;;;7.20;;
75050;SDS011;63628;47.656;11.310;2024-03-08T11:14:52;15.27;;;10.13;;
75050;SDS011;63628;47.656;11.310;2024-03-08T11:17:20;16.47;;;10.27;;
75050;SDS011;63628;47.656;11.310;2024-03-08T11:19:48;16.50;;;10.57;;
75050;SDS011;63628;47.656;11.310;2024-03-08T11:22:22;16.50;;;11.20;;
75050;SDS011;63628;47.656;11.310;2024-03-08T11:24:54;16.03;;;10.23;;
75050;SDS011;63628;47.656;11.310;2024-03-08T11:27:28;16.70;;;10.53;;
75050;SDS011;63628;47.656;11.310;2024-03-08T11:29:59;17.40;;;10.27;;
75050;SDS011;63628;47.656;11.310;2024-03-08T11:32:27;17.07;;;10.97;;
75050;SDS011;63628;47.656;11.310;2024-03-08T11:34:55;20.57;;;11.07;;
75050;SDS011;63628;47.656;11.310;2024-03-08T11:37:22;16.27;;;9.20;;
75050;SDS011;63628;47.656;11.310;2024-03-08T11:39:49;15.23;;;9.83;;
75050;SDS011;63628;47.656;11.310;2024-03-08T11:42:19;12.23;;;8.00;;
75050;SDS011;63628;47.656;11.310;2024-03-08T11:44:46;20.73;;;11.90;;
75050;SDS011;63628;47.656;11.310;2024-03-08T11:47:14;17.20;;;10.83;;
75050;SDS011;63628;47.656;11.310;2024-03-08T11:49:42;14.23;;;10.67;;
75050;SDS011;63628;47.656;11.310;2024-03-08T11:52:11;16.93;;;10.30;;
75050;SDS011;63628;47.656;11.310;2024-03-08T11:54:39;12.93;;;8.40;;
75050;SDS011;63628;47.656;11.310;2024-03-08T11:57:06;20.50;;;11.43;;
75050;SDS011;63628;47.656;11.310;2024-03-08T11:59:34;16.77;;;10.63;;
75050;SDS011;63628;47.656;11.310;2024-03-08T12:02:01;15.17;;;9.80;;
75050;SDS011;63628;47.656;11.310;2024-03-08T12:04:29;15.33;;;10.40;;
75050;SDS011;63628;47.656;11.310;2024-03-08T12:06:59;20.40;;;12.43;;
75050;SDS011;63628;47.656;11.310;2024-03-08T12:09:28;13.83;;;9.03;;
75050;SDS011;63628;47.656;11.310;2024-03-08T12:11:55;13.87;;;9.90;;
75050;SDS011;63628;47.656;11.310;2024-03-08T12:14:22;17.67;;;10.53;;
75050;SDS011;63628;47.656;11.310;2024-03-08T12:16:51;18.13;;;11.33;;
75050;SDS011;63628;47.656;11.310;2024-03-08T12:19:18;20.37;;;11.33;;
75050;SDS011;63628;47.656;11.310;2024-03-08T12:21:45;16.30;;;11.07;;
75050;SDS011;63628;47.656;11.310;2024-03-08T12:24:15;21.20;;;11.95;;
75050;SDS011;63628;47.656;11.310;2024-03-08T12:26:45;16.87;;;10.40;;
75050;SDS011;63628;47.656;11.310;2024-03-08T12:29:15;18.33;;;11.15;;
75050;SDS011;63628;47.656;11.310;2024-03-08T12:31:54;17.37;;;10.47;;
75050;SDS011;63628;47.656;11.310;2024-03-08T12:34:24;17.13;;;11.07;;
75050;SDS011;63628;47.656;11.310;2024-03-08T12:36:53;14.60;;;9.85;;
75050;SDS011;63628;47.656;11.310;2024-03-08T12:39:21;15.90;;;11.53;;
75050;SDS011;63628;47.656;11.310;2024-03-08T12:41:49;17.33;;;10.27;;
75050;SDS011;63628;47.656;11.310;2024-03-08T12:44:18;14.52;;;10.30;;
75050;SDS011;63628;47.656;11.310;2024-03-08T12:46:45;17.33;;;11.67;;
75050;SDS011;63628;47.656;11.310;2024-03-08T12:49:13;15.60;;;11.10;;
75050;SDS011;63628;47.656;11.310;2024-03-08T12:51:44;18.50;;;11.20;;
75050;SDS011;63628;47.656;11.310;2024-03-08T12:54:11;16.77;;;10.53;;
75050;SDS011;63628;47.656;11.310;2024-03-08T12:56:38;14.57;;;10.40;;
75050;SDS011;63628;47.656;11.310;2024-03-08T12:59:06;15.83;;;10.67;;
75050;SDS011;63628;47.656;11.310;2024-03-08T13:01:34;12.87;;;9.50;;
75050;SDS011;63628;47.656;11.310;2024-03-08T13:04:04;14.45;;;10.15;;
75050;SDS011;63628;47.656;11.310;2024-03-08T13:06:34;15.33;;;10.27;;
75050;SDS011;63628;47.656;11.310;2024-03-08T13:09:00;13.60;;;9.33;;
75050;SDS011;63628;47.656;11.310;2024-03-08T13:11:31;18.50;;;10.20;;
75050;SDS011;63628;47.656;11.310;2024-03-08T13:14:03;15.80;;;10.43;;
75050;SDS011;63628;47.656;11.310;2024-03-08T13:16:31;18.67;;;10.80;;
75050;SDS011;63628;47.656;11.310;2024-03-08T13:19:01;13.23;;;9.07;;
75050;SDS011;63628;47.656;11.310;2024-03-08T13:21:27;13.47;;;9.67;;
75050;SDS011;63628;47.656;11.310;2024-03-08T13:23:57;12.77;;;8.43;;
75050;SDS011;63628;47.656;11.310;2024-03-08T13:26:26;15.70;;;10.20;;
75050;SDS011;63628;47.656;11.310;2024-03-08T13:28:59;14.33;;;9.40;;
75050;SDS011;63628;47.656;11.310;2024-03-08T13:31:26;15.93;;;9.80;;
75050;SDS011;63628;47.656;11.310;2024-03-08T13:33:53;14.20;;;9.53;;
75050;SDS011;63628;47.656;11.310;2024-03-08T13:36:24;11.80;;;8.07;;
75050;SDS011;63628;47.656;11.310;2024-03-08T13:38:55;13.80;;;9.20;;
75050;SDS011;63628;47.656;11.310;2024-03-08T13:41:26;16.57;;;9.73;;
75050;SDS011;63628;47.656;11.310;2024-03-08T13:43:57;16.13;;;10.33;;
75050;SDS011;63628;47.656;11.310;2024-03-08T13:46:24;13.63;;;8.13;;
75050;SDS011;63628;47.656;11.310;2024-03-08T13:48:51;14.23;;;8.27;;
75050;SDS011;63628;47.656;11.310;2024-03-08T13:51:20;14.88;;;9.02;;
75050;SDS011;63628;47.656;11.310;2024-03-08T13:53:48;15.85;;;10.82;;
75050;SDS011;63628;47.656;11.310;2024-03-08T13:56:15;7.43;;;4.90;;
75050;SDS011;63628;47.656;11.310;2024-03-08T13:58:43;8.37;;;5.23;;
75050;SDS011;63628;47.656;11.310;2024-03-08T14:01:10;18.37;;;11.00;;
75050;SDS011;63628;47.656;11.310;2024-03-08T14:03:39;12.07;;;7.00;;
75050;SDS011;63628;47.656;11.310;2024-03-08T14:06:09;16.90;;;9.70;;
75050;SDS011;63628;47.656;11.310;2024-03-08T14:08:36;8.80;;;6.20;;
75050;SDS011;63628;47.656;11.310;2024-03-08T14:13:44;8.03;;;5.33;;
75050;SDS011;63628;47.656;11.310;2024-03-08T14:16:12;9.73;;;6.03;;
75050;SDS011;63628;47.656;11.310;2024-03-08T14:18:39;12.50;;;7.63;;
75050;SDS011;63628;47.656;11.310;2024-03-08T14:21:06;15.43;;;10.37;;
75050;SDS011;63628;47.656;11.310;2024-03-08T14:23:34;19.67;;;9.93;;
75050;SDS011;63628;47.656;11.310;2024-03-08T14:26:02;15.97;;;9.57;;
75050;SDS011;63628;47.656;11.310;2024-03-08T14:28:29;16.47;;;9.33;;
75050;SDS011;63628;47.656;11.310;2024-03-08T14:31:00;14.48;;;9.30;;
75050;SDS011;63628;47.656;11.310;2024-03-08T14:33:32;14.47;;;9.20;;
75050;SDS011;63628;47.656;11.310;2024-03-08T14:35:59;7.60;;;5.17;;